createdAt,value
2022-11-10T00:04:35.171Z,435.93332
2022-11-10T00:19:37.745Z,158.32405
2022-11-10T00:34:40.215Z,23.85705
2022-11-10T00:49:42.497Z,2.16882
2022-11-10T01:04:44.826Z,1.08441
2022-11-10T01:19:47.279Z,1.08441
2022-11-10T01:34:49.730Z,1.08441
2022-11-10T01:49:52.045Z,1.08441
2022-11-10T02:04:54.343Z,1.08441
2022-11-10T02:19:56.694Z,1.08441
2022-11-10T02:34:58.939Z,1.08441
2022-11-10T02:50:01.522Z,1.08441
2022-11-10T03:05:03.709Z,1.08441
2022-11-10T03:20:06.163Z,1.08441
2022-11-10T03:35:08.627Z,1.08441
2022-11-10T03:50:11.052Z,1.08441
2022-11-10T04:05:13.600Z,1.08441
2022-11-10T04:20:15.812Z,1.08441
2022-11-10T04:35:18.040Z,1.08441
2022-11-10T04:50:20.291Z,1.08441
2022-11-10T05:05:22.750Z,1.08441
2022-11-10T05:20:25.134Z,1.08441
2022-11-10T05:35:27.372Z,1.08441
2022-11-10T05:50:29.679Z,1.08441
2022-11-10T06:05:32.029Z,1.08441
2022-11-10T06:20:34.527Z,1.08441
2022-11-10T06:35:36.840Z,1.08441
2022-11-10T06:50:39.098Z,1.08441
2022-11-10T07:05:41.340Z,1.08441
2022-11-10T07:20:43.578Z,1.08441
2022-11-10T07:35:45.816Z,1.08441
2022-11-10T07:50:48.257Z,1.08441
2022-11-10T08:05:50.776Z,1.08441
2022-11-10T08:20:53.744Z,1.08441
2022-11-10T08:35:56.002Z,1.08441
2022-11-10T08:50:58.253Z,1.08441
2022-11-10T09:06:01.164Z,1.08441
2022-11-10T09:21:03.703Z,1.08441
2022-11-10T09:36:05.883Z,1.08441
2022-11-10T09:51:08.292Z,1.08441
2022-11-10T10:06:10.559Z,1.08441
2022-11-10T10:21:12.909Z,1.08441
2022-11-10T10:36:15.229Z,1.08441
2022-11-10T10:51:17.739Z,0
2022-11-10T11:06:19.973Z,1.08441
2022-11-10T11:21:22.226Z,1.08441
2022-11-10T11:36:24.544Z,1.08441
2022-11-10T11:51:26.775Z,1.08441
2022-11-10T12:06:29.025Z,1.08441
2022-11-10T12:21:31.319Z,1.08441
2022-11-10T12:36:33.521Z,1.08441
2022-11-10T12:51:35.733Z,1.08441
2022-11-10T13:06:38.084Z,1.08441
2022-11-10T13:21:40.391Z,1.08441
2022-11-10T13:36:42.618Z,1.08441
2022-11-10T13:51:45.007Z,1.08441
2022-11-10T14:06:47.314Z,1.08441
2022-11-10T14:21:53.957Z,1.08441
2022-11-10T14:36:57.737Z,7.59088
2022-11-10T14:51:59.935Z,54.22056
2022-11-10T15:07:02.484Z,136.63582
2022-11-10T15:22:04.728Z,290.62222
2022-11-10T15:37:07.189Z,520.5174
2022-11-10T15:52:09.417Z,812.22406
2022-11-10T16:07:12.119Z,1182.0083
2022-11-10T16:22:14.462Z,1572.39636
2022-11-10T16:37:16.726Z,1707.94775
2022-11-10T16:52:18.954Z,2056.0437
2022-11-10T17:07:21.293Z,2688.25562
2022-11-10T17:22:23.609Z,3463.60962
2022-11-10T17:37:25.815Z,4249.80762
2022-11-10T17:52:28.066Z,4991.54492
2022-11-10T18:07:30.290Z,6022.82031
2022-11-10T18:22:32.531Z,7918.37109
2022-11-10T18:37:38.752Z,8627.57617
2022-11-10T18:52:41.541Z,8885.66602
2022-11-10T19:07:43.823Z,9843.20117
2022-11-10T19:22:46.114Z,8608.05664
2022-11-10T19:37:48.584Z,9741.2666
2022-11-10T19:52:50.816Z,16330.14941
2022-11-10T20:07:53.160Z,14891.13574
2022-11-10T20:22:55.589Z,13996.49609
2022-11-10T20:37:57.908Z,13546.46582
2022-11-10T20:53:00.218Z,12065.16016
2022-11-10T21:08:03.109Z,11174.8584
2022-11-10T21:23:05.535Z,9999.35645
2022-11-10T21:38:07.789Z,7706.91064
2022-11-10T21:53:10.232Z,6112.82617
2022-11-10T22:08:12.501Z,5388.43945
2022-11-10T22:23:14.761Z,3845.32227
2022-11-10T22:38:17.047Z,2367.26978
2022-11-10T22:53:19.456Z,1987.72583
2022-11-10T23:08:21.759Z,1680.8374
2022-11-10T23:23:24.986Z,1349.00757
2022-11-10T23:38:27.874Z,1004.16486
2022-11-10T23:53:30.402Z,688.60114
